createdAt,value
2017-05-25T00:00:26.504Z,14.29
2017-05-25T00:01:27.228Z,14.33
2017-05-25T00:02:27.976Z,14.26
2017-05-25T00:03:28.952Z,14.25
2017-05-25T00:04:29.675Z,14.36
2017-05-25T00:05:30.399Z,14.25
2017-05-25T00:06:31.124Z,14.25
2017-05-25T00:07:31.851Z,14.33
2017-05-25T00:08:32.819Z,14.29
2017-05-25T00:09:33.544Z,14.29
2017-05-25T00:10:34.268Z,14.23
2017-05-25T00:11:34.992Z,14.29
2017-05-25T00:12:35.717Z,14.23
2017-05-25T00:13:36.693Z,14.15
2017-05-25T00:14:37.416Z,14.15
2017-05-25T00:15:38.137Z,14.18
2017-05-25T00:16:38.861Z,14.12
2017-05-25T00:17:39.586Z,14.04
2017-05-25T00:18:40.560Z,14.14
2017-05-25T00:19:41.284Z,14.08
2017-05-25T00:20:42.009Z,14.07
2017-05-25T00:21:42.736Z,14.15
2017-05-25T00:22:43.481Z,14.05
2017-05-25T00:23:44.455Z,14.03
2017-05-25T00:24:45.180Z,14.05
2017-05-25T00:25:45.900Z,14.05
2017-05-25T00:26:46.624Z,14.00
2017-05-25T00:27:47.348Z,14.03
2017-05-25T00:28:48.323Z,13.90
2017-05-25T00:29:49.048Z,13.96
2017-05-25T00:30:49.771Z,13.86
2017-05-25T00:31:50.494Z,13.90
2017-05-25T00:32:51.218Z,13.86
2017-05-25T00:33:52.216Z,13.79
2017-05-25T00:34:52.941Z,13.78
2017-05-25T00:35:53.689Z,13.77
2017-05-25T00:36:54.415Z,13.75
2017-05-25T00:37:55.162Z,13.72
2017-05-25T00:38:56.161Z,13.74
2017-05-25T00:39:56.885Z,13.72
2017-05-25T00:40:57.608Z,13.65
2017-05-25T00:41:58.330Z,13.70
2017-05-25T00:42:59.053Z,13.65
2017-05-25T00:44:00.026Z,13.65
2017-05-25T00:45:00.773Z,13.68
2017-05-25T00:46:01.500Z,13.67
2017-05-25T00:47:02.247Z,13.62
2017-05-25T00:48:02.972Z,13.60
2017-05-25T00:49:03.947Z,13.60
2017-05-25T00:50:04.673Z,13.53
2017-05-25T00:51:05.396Z,13.53
2017-05-25T00:52:06.118Z,13.46
2017-05-25T00:53:06.843Z,13.47
2017-05-25T00:54:07.816Z,13.39
2017-05-25T00:55:08.541Z,13.44
2017-05-25T00:56:09.265Z,13.39
2017-05-25T00:57:09.988Z,13.42
2017-05-25T00:58:10.710Z,13.31
2017-05-25T00:59:11.685Z,13.49
2017-05-25T01:00:12.410Z,13.23
2017-05-25T01:01:13.134Z,13.37
2017-05-25T01:02:13.883Z,13.35
2017-05-25T01:03:14.608Z,13.38
2017-05-25T01:04:15.579Z,13.37
2017-05-25T01:05:16.302Z,13.25
2017-05-25T01:06:17.029Z,13.18
2017-05-25T01:08:18.379Z,13.31
2017-05-25T01:09:19.354Z,13.19
2017-05-25T01:10:20.077Z,13.23
2017-05-25T01:11:20.800Z,13.12
2017-05-25T01:12:21.524Z,13.13
2017-05-25T01:13:22.250Z,13.13
2017-05-25T01:14:23.224Z,13.12
2017-05-25T01:15:23.948Z,13.11
2017-05-25T01:16:24.674Z,13.12
2017-05-25T01:17:25.398Z,13.01
2017-05-25T01:18:26.121Z,13.01
2017-05-25T01:19:27.098Z,13.08
2017-05-25T01:20:27.820Z,13.03
2017-05-25T01:21:28.571Z,12.95
2017-05-25T01:22:29.320Z,12.93
2017-05-25T01:23:30.043Z,13.00
2017-05-25T01:24:31.019Z,12.98
2017-05-25T01:25:31.743Z,12.95
2017-05-25T01:26:32.494Z,12.86
2017-05-25T01:27:33.219Z,12.82
2017-05-25T01:28:33.940Z,12.85
2017-05-25T01:29:34.915Z,12.86
2017-05-25T01:30:35.640Z,12.86
2017-05-25T01:31:36.367Z,12.76
2017-05-25T01:32:37.116Z,12.87
2017-05-25T01:33:37.842Z,12.87
2017-05-25T01:34:38.819Z,12.86
2017-05-25T01:35:39.544Z,12.80
2017-05-25T01:36:40.268Z,12.80
2017-05-25T01:37:40.995Z,12.76
2017-05-25T01:38:41.717Z,12.83
2017-05-25T01:39:42.691Z,12.73
2017-05-25T01:40:43.415Z,12.78
2017-05-25T01:41:44.139Z,12.79
2017-05-25T01:42:44.891Z,12.80
2017-05-25T01:43:45.615Z,12.78
2017-05-25T01:44:46.589Z,12.72
2017-05-25T01:45:47.315Z,12.73
2017-05-25T01:46:48.040Z,12.78
2017-05-25T01:47:48.763Z,12.79
2017-05-25T01:48:49.497Z,12.73
2017-05-25T01:49:50.472Z,12.73
2017-05-25T01:50:51.222Z,12.72
2017-05-25T01:51:51.946Z,12.73
2017-05-25T01:52:52.670Z,12.78
2017-05-25T01:53:53.401Z,12.72
2017-05-25T01:54:54.369Z,12.79
2017-05-25T01:55:55.094Z,12.75
2017-05-25T01:56:55.817Z,12.72
2017-05-25T01:57:56.538Z,12.85
2017-05-25T01:58:57.264Z,12.87
2017-05-25T01:59:58.240Z,12.85
2017-05-25T02:00:58.965Z,12.82
2017-05-25T02:01:59.688Z,12.83
2017-05-25T02:03:00.413Z,12.76
2017-05-25T02:04:01.139Z,12.87
2017-05-25T02:05:02.163Z,12.83
2017-05-25T02:06:02.886Z,12.80
2017-05-25T02:07:03.610Z,12.86
2017-05-25T02:08:04.337Z,12.91
2017-05-25T02:09:05.060Z,12.98
2017-05-25T02:10:06.056Z,12.93
2017-05-25T02:11:06.780Z,12.93
2017-05-25T02:12:07.508Z,13.04
2017-05-25T02:13:08.230Z,13.01
2017-05-25T02:14:08.956Z,13.03
2017-05-25T02:15:09.931Z,13.01
2017-05-25T02:16:10.656Z,13.05
2017-05-25T02:17:11.381Z,13.08
2017-05-25T02:18:12.105Z,13.01
2017-05-25T02:19:12.829Z,13.01
2017-05-25T02:20:13.806Z,13.05
2017-05-25T02:21:14.529Z,13.03
2017-05-25T02:22:15.276Z,13.03
2017-05-25T02:23:16.001Z,13.09
2017-05-25T02:24:16.725Z,13.08
2017-05-25T02:25:17.704Z,13.04
2017-05-25T02:26:18.450Z,13.12
2017-05-25T02:27:19.173Z,13.16
2017-05-25T02:28:19.899Z,13.15
2017-05-25T02:29:20.629Z,13.16
2017-05-25T02:30:21.598Z,13.19
2017-05-25T02:31:22.324Z,13.13
2017-05-25T02:32:23.048Z,13.13
2017-05-25T02:33:23.772Z,13.16
2017-05-25T02:34:24.496Z,13.27
2017-05-25T02:35:25.472Z,13.16
2017-05-25T02:36:26.200Z,13.19
2017-05-25T02:37:26.921Z,13.12
2017-05-25T02:38:27.648Z,13.23
2017-05-25T02:39:28.375Z,13.13
2017-05-25T02:40:29.350Z,13.18
2017-05-25T02:41:30.075Z,13.27
2017-05-25T02:42:30.798Z,13.25
2017-05-25T02:43:31.548Z,13.20
2017-05-25T02:44:32.298Z,13.30
2017-05-25T02:45:33.270Z,13.27
2017-05-25T02:46:33.998Z,13.27
2017-05-25T02:47:34.723Z,13.27
2017-05-25T02:48:35.474Z,13.25
2017-05-25T02:49:36.199Z,13.28
2017-05-25T02:50:37.174Z,13.31
2017-05-25T02:51:37.899Z,13.31
2017-05-25T02:52:38.624Z,13.30
2017-05-25T02:53:39.349Z,13.41
2017-05-25T02:54:40.074Z,13.22
2017-05-25T02:55:41.049Z,13.44
2017-05-25T02:56:41.774Z,13.39
2017-05-25T02:57:42.499Z,13.38
2017-05-25T02:58:43.247Z,13.33
2017-05-25T02:59:43.972Z,13.37
2017-05-25T03:00:44.946Z,13.38
2017-05-25T03:01:45.676Z,13.41
2017-05-25T03:02:46.401Z,13.38
2017-05-25T03:03:47.129Z,13.33
2017-05-25T03:04:47.854Z,13.42
2017-05-25T03:05:48.829Z,13.35
2017-05-25T03:06:49.553Z,13.44
2017-05-25T03:07:50.280Z,13.50
2017-05-25T03:08:51.007Z,13.46
2017-05-25T03:09:51.733Z,13.49
2017-05-25T03:10:52.711Z,13.37
2017-05-25T03:11:53.436Z,13.49
2017-05-25T03:12:54.163Z,13.52
2017-05-25T03:13:54.889Z,13.49
2017-05-25T03:14:55.618Z,13.52
2017-05-25T03:15:56.591Z,13.52
2017-05-25T03:16:57.320Z,13.49
2017-05-25T03:17:58.045Z,13.56
2017-05-25T03:18:58.775Z,13.47
2017-05-25T03:19:59.498Z,13.49
2017-05-25T03:21:00.500Z,13.52
2017-05-25T03:22:01.226Z,13.52
2017-05-25T03:23:01.952Z,13.52
2017-05-25T03:24:02.682Z,13.50
2017-05-25T03:25:03.407Z,13.60
2017-05-25T03:26:04.412Z,13.67
2017-05-25T03:27:05.136Z,13.63
2017-05-25T03:28:05.865Z,13.59
2017-05-25T03:29:06.594Z,13.59
2017-05-25T03:30:07.323Z,13.63
2017-05-25T03:31:08.298Z,13.54
2017-05-25T03:32:09.027Z,13.59
2017-05-25T03:33:09.755Z,13.57
2017-05-25T03:34:10.482Z,13.63
2017-05-25T03:35:11.210Z,13.63
2017-05-25T03:36:12.186Z,13.60
2017-05-25T03:37:12.915Z,13.60
2017-05-25T03:38:13.643Z,13.67
2017-05-25T03:39:14.372Z,13.63
2017-05-25T03:40:15.129Z,13.65
2017-05-25T03:41:16.103Z,13.63
2017-05-25T03:42:16.831Z,13.70
2017-05-25T03:43:17.559Z,13.62
2017-05-25T03:44:18.289Z,13.70
2017-05-25T03:45:19.019Z,13.65
2017-05-25T03:46:19.998Z,13.65
2017-05-25T03:47:20.729Z,13.67
2017-05-25T03:48:21.457Z,13.65
2017-05-25T03:49:22.183Z,13.63
2017-05-25T03:50:22.913Z,13.68
2017-05-25T03:51:23.893Z,13.70
2017-05-25T03:52:24.621Z,13.70
2017-05-25T03:53:25.348Z,13.68
2017-05-25T03:54:26.075Z,13.60
2017-05-25T03:55:26.802Z,13.67
2017-05-25T03:56:27.781Z,13.63
2017-05-25T03:57:28.510Z,13.71
2017-05-25T03:58:29.240Z,13.65
2017-05-25T03:59:29.971Z,13.62
2017-05-25T04:00:30.697Z,13.72
2017-05-25T04:01:31.702Z,13.71
2017-05-25T04:02:32.429Z,13.63
2017-05-25T04:03:33.163Z,13.49
2017-05-25T04:04:33.889Z,13.67
2017-05-25T04:05:34.615Z,13.59
2017-05-25T04:06:35.592Z,13.56
2017-05-25T04:07:36.322Z,13.57
2017-05-25T04:08:37.049Z,13.47
2017-05-25T04:09:37.781Z,13.39
2017-05-25T04:10:38.510Z,13.52
2017-05-25T04:11:39.486Z,13.50
2017-05-25T04:12:40.227Z,13.50
2017-05-25T04:13:40.942Z,13.57
2017-05-25T04:14:41.696Z,13.49
2017-05-25T04:15:42.425Z,13.59
2017-05-25T04:16:43.405Z,13.63
2017-05-25T04:17:44.132Z,13.60
2017-05-25T04:18:44.861Z,13.71
2017-05-25T04:19:45.589Z,13.67
2017-05-25T04:20:46.318Z,13.62
2017-05-25T04:21:47.294Z,13.62
2017-05-25T04:22:48.047Z,13.49
2017-05-25T04:23:48.776Z,13.56
2017-05-25T04:24:49.504Z,13.59
2017-05-25T04:25:50.234Z,13.54
2017-05-25T04:26:51.216Z,13.62
2017-05-25T04:27:51.945Z,13.62
2017-05-25T04:28:52.702Z,13.63
2017-05-25T04:29:53.433Z,13.63
2017-05-25T04:30:54.160Z,13.70
2017-05-25T04:31:55.140Z,13.62
2017-05-25T04:32:55.870Z,13.65
2017-05-25T04:33:56.598Z,13.65
2017-05-25T04:34:57.327Z,13.71
2017-05-25T04:35:58.060Z,13.68
2017-05-25T04:36:59.042Z,13.70
2017-05-25T04:37:59.772Z,13.71
2017-05-25T04:39:00.526Z,13.74
2017-05-25T04:40:01.258Z,13.72
2017-05-25T04:41:01.988Z,13.77
2017-05-25T04:42:03.015Z,13.72
2017-05-25T04:43:03.771Z,13.77
2017-05-25T04:44:04.500Z,13.79
2017-05-25T04:45:05.253Z,13.85
2017-05-25T04:46:05.985Z,13.87
2017-05-25T04:47:06.966Z,13.85
2017-05-25T04:48:07.694Z,13.89
2017-05-25T04:49:08.427Z,13.92
2017-05-25T04:50:09.156Z,13.89
2017-05-25T04:51:09.883Z,13.90
2017-05-25T04:52:10.864Z,13.89
2017-05-25T04:53:11.595Z,13.95
2017-05-25T04:54:12.324Z,13.90
2017-05-25T04:55:13.055Z,13.90
2017-05-25T04:56:13.784Z,13.86
2017-05-25T04:57:14.768Z,13.90
2017-05-25T04:58:15.517Z,13.93
2017-05-25T04:59:16.247Z,13.87
2017-05-25T05:00:16.975Z,13.90
2017-05-25T05:01:17.707Z,13.92
2017-05-25T05:02:18.684Z,13.85
2017-05-25T05:03:19.416Z,13.89
2017-05-25T05:04:20.150Z,13.87
2017-05-25T05:05:20.874Z,13.95
2017-05-25T05:06:21.605Z,13.87
2017-05-25T05:07:22.587Z,13.79
2017-05-25T05:08:23.343Z,13.87
2017-05-25T05:09:24.094Z,13.92
2017-05-25T05:10:24.825Z,13.83
2017-05-25T05:11:25.556Z,13.74
2017-05-25T05:12:26.565Z,13.77
2017-05-25T05:13:27.290Z,13.83
2017-05-25T05:14:28.019Z,13.79
2017-05-25T05:15:28.750Z,13.72
2017-05-25T05:16:29.479Z,13.72
2017-05-25T05:17:30.458Z,13.78
2017-05-25T05:18:31.186Z,13.83
2017-05-25T05:19:31.919Z,13.85
2017-05-25T05:20:32.650Z,13.79
2017-05-25T05:21:33.405Z,13.79
2017-05-25T05:22:34.388Z,13.75
2017-05-25T05:23:35.118Z,13.87
2017-05-25T05:24:35.850Z,13.78
2017-05-25T05:25:36.579Z,13.86
2017-05-25T05:26:37.310Z,13.89
2017-05-25T05:27:38.287Z,13.93
2017-05-25T05:28:39.017Z,13.99
2017-05-25T05:29:39.747Z,14.00
2017-05-25T05:30:40.478Z,14.00
2017-05-25T05:31:41.208Z,13.97
2017-05-25T05:32:42.191Z,14.08
2017-05-25T05:33:42.923Z,14.12
2017-05-25T05:34:43.654Z,14.12
2017-05-25T05:35:44.412Z,14.17
2017-05-25T05:36:45.144Z,14.26
2017-05-25T05:37:46.126Z,14.18
2017-05-25T05:38:46.860Z,14.15
2017-05-25T05:39:47.590Z,14.23
2017-05-25T05:40:48.319Z,14.20
2017-05-25T05:41:49.051Z,14.23
2017-05-25T05:42:50.031Z,14.25
2017-05-25T05:43:50.762Z,14.17
2017-05-25T05:44:51.493Z,14.23
2017-05-25T05:45:52.222Z,14.25
2017-05-25T05:46:52.955Z,14.30
2017-05-25T05:47:53.936Z,14.25
2017-05-25T05:48:54.669Z,14.29
2017-05-25T05:49:55.404Z,14.36
2017-05-25T05:50:56.133Z,14.40
2017-05-25T05:51:56.864Z,14.51
2017-05-25T05:52:57.847Z,14.44
2017-05-25T05:53:58.577Z,14.54
2017-05-25T05:54:59.312Z,14.50
2017-05-25T05:56:00.042Z,14.59
2017-05-25T05:57:00.802Z,14.63
2017-05-25T05:58:01.783Z,14.51
2017-05-25T05:59:02.515Z,14.63
2017-05-25T06:00:03.246Z,14.58
2017-05-25T06:01:03.978Z,14.65
2017-05-25T06:02:04.712Z,14.78
2017-05-25T06:03:05.692Z,14.86
2017-05-25T06:04:06.424Z,14.86
2017-05-25T06:05:07.157Z,14.84
2017-05-25T06:06:07.891Z,14.96
2017-05-25T06:07:08.650Z,14.94
2017-05-25T06:08:09.630Z,15.00
2017-05-25T06:09:10.364Z,15.21
2017-05-25T06:10:11.097Z,15.22
2017-05-25T06:11:11.830Z,15.31
2017-05-25T06:12:12.561Z,15.31
2017-05-25T06:13:13.545Z,15.40
2017-05-25T06:14:14.275Z,15.31
2017-05-25T06:15:15.008Z,15.43
2017-05-25T06:16:15.742Z,15.43
2017-05-25T06:17:16.475Z,15.40
2017-05-25T06:18:17.458Z,15.46
2017-05-25T06:19:18.192Z,15.57
2017-05-25T06:20:18.925Z,15.47
2017-05-25T06:21:19.658Z,15.39
2017-05-25T06:22:20.391Z,15.37
2017-05-25T06:23:21.373Z,15.40
2017-05-25T06:24:22.109Z,15.43
2017-05-25T06:25:22.837Z,15.40
2017-05-25T06:26:23.572Z,15.36
2017-05-25T06:27:24.302Z,15.21
2017-05-25T06:28:25.285Z,15.37
2017-05-25T06:29:26.017Z,15.42
2017-05-25T06:30:26.752Z,15.44
2017-05-25T06:31:27.484Z,15.36
2017-05-25T06:32:28.216Z,15.39
2017-05-25T06:33:29.199Z,15.49
2017-05-25T06:34:29.934Z,15.61
2017-05-25T06:35:30.666Z,15.76
2017-05-25T06:36:31.396Z,15.79
2017-05-25T06:37:32.135Z,15.95
2017-05-25T06:38:33.117Z,16.13
2017-05-25T06:39:33.852Z,16.24
2017-05-25T06:40:34.586Z,16.31
2017-05-25T06:41:35.318Z,16.36
2017-05-25T06:42:36.055Z,16.32
2017-05-25T06:43:37.039Z,16.36
2017-05-25T06:44:37.772Z,16.31
2017-05-25T06:45:38.508Z,16.31
2017-05-25T06:46:39.240Z,16.24
2017-05-25T06:47:39.973Z,16.08
2017-05-25T06:48:40.956Z,16.15
2017-05-25T06:49:41.715Z,16.32
2017-05-25T06:50:42.450Z,16.35
2017-05-25T06:51:43.180Z,16.36
2017-05-25T06:52:43.935Z,16.51
2017-05-25T06:53:44.919Z,16.47
2017-05-25T06:54:45.653Z,16.38
2017-05-25T06:55:46.383Z,16.50
2017-05-25T06:56:47.119Z,16.41
2017-05-25T06:57:47.852Z,16.46
2017-05-25T06:58:48.834Z,16.54
2017-05-25T06:59:49.568Z,16.72
2017-05-25T07:00:50.304Z,16.86
2017-05-25T07:01:51.038Z,16.96
2017-05-25T07:02:51.794Z,17.01
2017-05-25T07:03:52.779Z,17.23
2017-05-25T07:04:53.513Z,17.31
2017-05-25T07:05:54.247Z,17.41
2017-05-25T07:06:54.981Z,17.45
2017-05-25T07:07:55.717Z,17.41
2017-05-25T07:08:56.704Z,17.38
2017-05-25T07:09:57.441Z,17.52
2017-05-25T07:10:58.174Z,17.52
2017-05-25T07:11:58.911Z,17.67
2017-05-25T07:12:59.644Z,17.48
2017-05-25T07:14:00.630Z,17.48
2017-05-25T07:15:01.367Z,17.67
2017-05-25T07:16:02.102Z,17.79
2017-05-25T07:17:02.861Z,17.86
2017-05-25T07:18:03.599Z,18.05
2017-05-25T07:19:04.583Z,18.03
2017-05-25T07:20:05.321Z,18.20
2017-05-25T07:21:06.057Z,18.35
2017-05-25T07:22:06.792Z,18.38
2017-05-25T07:23:07.531Z,18.33
2017-05-25T07:24:08.517Z,18.34
2017-05-25T07:25:09.254Z,18.38
2017-05-25T07:26:09.991Z,18.34
2017-05-25T07:27:10.730Z,18.52
2017-05-25T07:28:11.467Z,18.37
2017-05-25T07:29:12.456Z,18.58
2017-05-25T07:30:13.197Z,18.66
2017-05-25T07:31:13.935Z,18.78
2017-05-25T07:32:14.678Z,18.83
2017-05-25T07:33:15.421Z,18.78
2017-05-25T07:34:16.415Z,18.99
2017-05-25T07:35:17.155Z,19.08
2017-05-25T07:36:17.899Z,18.88
2017-05-25T07:37:18.644Z,18.98
2017-05-25T07:38:19.386Z,18.62
2017-05-25T07:39:20.379Z,18.60
2017-05-25T07:40:21.120Z,18.20
2017-05-25T07:41:21.866Z,18.03
2017-05-25T07:42:22.609Z,18.31
2017-05-25T07:43:23.355Z,18.52
2017-05-25T07:44:24.352Z,18.68
2017-05-25T07:45:25.097Z,18.43
2017-05-25T07:46:25.840Z,18.60
2017-05-25T07:47:26.587Z,18.70
2017-05-25T07:48:27.331Z,18.77
2017-05-25T07:49:28.322Z,18.71
2017-05-25T07:50:29.063Z,18.70
2017-05-25T07:51:29.803Z,18.73
2017-05-25T07:52:30.567Z,18.60
2017-05-25T07:53:31.307Z,18.63
2017-05-25T07:54:32.301Z,18.58
2017-05-25T07:55:33.039Z,18.44
2017-05-25T07:56:33.781Z,18.43
2017-05-25T07:57:34.518Z,18.58
2017-05-25T07:58:35.256Z,18.52
2017-05-25T07:59:36.250Z,18.49
2017-05-25T08:00:36.988Z,18.56
2017-05-25T08:01:37.724Z,18.62
2017-05-25T08:02:38.488Z,18.73
2017-05-25T08:03:39.224Z,18.77
2017-05-25T08:04:40.214Z,18.89
2017-05-25T08:05:40.952Z,19.07
2017-05-25T08:06:41.687Z,19.04
2017-05-25T08:07:42.425Z,18.78
2017-05-25T08:08:43.168Z,19.00
2017-05-25T08:09:44.152Z,19.12
2017-05-25T08:10:44.893Z,19.30
2017-05-25T08:11:45.657Z,19.54
2017-05-25T08:12:46.397Z,19.58
2017-05-25T08:13:47.142Z,19.95
2017-05-25T08:14:48.132Z,19.79
2017-05-25T08:15:48.877Z,19.67
2017-05-25T08:16:49.620Z,19.95
2017-05-25T08:17:50.361Z,20.11
2017-05-25T08:18:51.107Z,20.32
2017-05-25T08:19:52.099Z,20.26
2017-05-25T08:20:52.845Z,20.48
2017-05-25T08:21:53.589Z,20.56
2017-05-25T08:22:54.330Z,20.22
2017-05-25T08:23:55.097Z,20.22
2017-05-25T08:24:56.091Z,20.58
2017-05-25T08:25:56.838Z,20.74
2017-05-25T08:26:57.580Z,20.65
2017-05-25T08:27:58.322Z,20.81
2017-05-25T08:28:59.065Z,20.82
2017-05-25T08:30:00.058Z,21.33
2017-05-25T08:31:00.800Z,21.80
2017-05-25T08:32:01.541Z,22.11
2017-05-25T08:33:02.285Z,22.11
2017-05-25T08:34:03.025Z,21.73
2017-05-25T08:35:04.022Z,22.18
2017-05-25T08:36:04.764Z,22.48
2017-05-25T08:37:05.530Z,22.47
2017-05-25T08:38:06.273Z,22.11
2017-05-25T08:39:07.019Z,22.63
2017-05-25T08:40:08.012Z,22.63
2017-05-25T08:41:08.843Z,22.69
2017-05-25T08:42:09.522Z,22.41
2017-05-25T08:43:10.291Z,22.73
2017-05-25T08:44:11.035Z,23.17
2017-05-25T08:45:12.030Z,23.58
2017-05-25T08:46:12.779Z,23.55
2017-05-25T08:47:13.518Z,23.99
2017-05-25T08:48:14.270Z,24.03
2017-05-25T08:49:15.011Z,24.20
2017-05-25T08:50:16.006Z,23.88
2017-05-25T08:51:16.748Z,24.26
2017-05-25T08:52:17.494Z,24.06
2017-05-25T08:53:18.238Z,22.83
2017-05-25T08:54:18.985Z,23.21
2017-05-25T08:55:19.979Z,23.66
2017-05-25T08:56:20.721Z,23.39
2017-05-25T08:57:21.465Z,23.28
2017-05-25T08:58:22.210Z,23.17
2017-05-25T08:59:22.957Z,22.88
2017-05-25T09:00:23.952Z,22.91
2017-05-25T09:01:24.691Z,22.90
2017-05-25T09:02:25.434Z,22.70
2017-05-25T09:03:26.181Z,23.18
2017-05-25T09:04:26.926Z,23.68
2017-05-25T09:05:27.923Z,24.02
2017-05-25T09:06:28.667Z,24.21
2017-05-25T09:07:29.411Z,23.98
2017-05-25T09:08:30.158Z,23.92
2017-05-25T09:09:30.903Z,24.50
2017-05-25T09:10:31.896Z,24.54
2017-05-25T09:11:32.645Z,24.16
2017-05-25T09:12:33.390Z,23.59
2017-05-25T09:13:34.135Z,23.92
2017-05-25T09:14:34.912Z,24.38
2017-05-25T09:15:35.937Z,24.39
2017-05-25T09:16:36.685Z,24.61
2017-05-25T09:17:37.428Z,25.13
2017-05-25T09:18:38.184Z,25.43
2017-05-25T09:19:38.938Z,25.68
2017-05-25T09:20:39.943Z,25.77
2017-05-25T09:21:40.698Z,25.98
2017-05-25T09:22:41.453Z,26.29
2017-05-25T09:23:42.209Z,26.13
2017-05-25T09:24:42.966Z,26.28
2017-05-25T09:25:43.996Z,25.51
2017-05-25T09:26:44.748Z,25.41
2017-05-25T09:27:45.502Z,25.51
2017-05-25T09:28:46.257Z,25.90
2017-05-25T09:29:47.016Z,25.65
2017-05-25T09:30:48.074Z,26.02
2017-05-25T09:31:48.839Z,26.31
2017-05-25T09:32:49.595Z,26.70
2017-05-25T09:33:50.349Z,26.38
2017-05-25T09:34:51.105Z,26.83
2017-05-25T09:35:52.110Z,26.88
2017-05-25T09:36:52.863Z,27.18
2017-05-25T09:37:53.614Z,27.10
2017-05-25T09:38:54.370Z,27.05
2017-05-25T09:39:55.123Z,27.21
2017-05-25T09:40:56.129Z,27.45
2017-05-25T09:41:56.885Z,27.18
2017-05-25T09:42:57.639Z,27.30
2017-05-25T09:43:58.395Z,26.85
2017-05-25T09:44:59.152Z,26.90
2017-05-25T09:46:00.159Z,27.27
2017-05-25T09:47:00.941Z,26.74
2017-05-25T09:48:01.695Z,27.14
2017-05-25T09:49:02.453Z,27.07
2017-05-25T09:50:03.210Z,26.78
2017-05-25T09:51:04.218Z,26.63
2017-05-25T09:52:04.965Z,26.84
2017-05-25T09:53:05.719Z,26.95
2017-05-25T09:54:06.473Z,26.70
2017-05-25T09:55:07.228Z,26.74
2017-05-25T09:56:08.229Z,26.83
2017-05-25T09:57:08.982Z,27.03
2017-05-25T09:58:09.737Z,26.81
2017-05-25T09:59:10.493Z,26.88
2017-05-25T10:00:11.245Z,26.36
2017-05-25T10:01:12.249Z,27.07
2017-05-25T10:02:13.006Z,26.97
2017-05-25T10:03:13.755Z,27.05
2017-05-25T10:04:14.511Z,27.45
2017-05-25T10:05:15.291Z,27.42
2017-05-25T10:06:16.315Z,26.19
2017-05-25T10:07:17.070Z,26.71
2017-05-25T10:08:17.822Z,26.81
2017-05-25T10:09:18.573Z,26.51
2017-05-25T10:10:19.323Z,26.25
2017-05-25T10:11:20.357Z,26.25
2017-05-25T10:12:21.110Z,26.66
2017-05-25T10:13:21.883Z,27.15
2017-05-25T10:14:22.633Z,27.30
2017-05-25T10:15:23.409Z,27.68
2017-05-25T10:16:24.415Z,28.02
2017-05-25T10:17:25.169Z,28.15
2017-05-25T10:18:25.955Z,28.48
2017-05-25T10:19:26.708Z,28.60
2017-05-25T10:20:27.466Z,28.15
2017-05-25T10:21:28.474Z,28.11
2017-05-25T10:22:29.225Z,28.00
2017-05-25T10:23:30.001Z,28.35
2017-05-25T10:24:30.754Z,28.60
2017-05-25T10:25:31.509Z,28.45
2017-05-25T10:26:32.514Z,28.41
2017-05-25T10:27:33.292Z,28.60
2017-05-25T10:28:34.046Z,29.07
2017-05-25T10:29:34.798Z,27.63
2017-05-25T10:30:35.553Z,26.73
2017-05-25T10:31:36.557Z,26.70
2017-05-25T10:32:37.308Z,26.81
2017-05-25T10:33:38.086Z,26.95
2017-05-25T10:34:38.838Z,27.33
2017-05-25T10:35:39.591Z,27.29
2017-05-25T10:36:40.594Z,27.60
2017-05-25T10:37:41.344Z,28.10
2017-05-25T10:38:42.099Z,28.14
2017-05-25T10:39:42.855Z,28.04
2017-05-25T10:40:43.608Z,28.45
2017-05-25T10:41:44.615Z,28.10
2017-05-25T10:42:45.366Z,28.01
2017-05-25T10:43:46.114Z,28.60
2017-05-25T10:44:46.866Z,28.64
2017-05-25T10:45:47.621Z,28.98
2017-05-25T10:46:48.628Z,29.22
2017-05-25T10:47:49.409Z,29.19
2017-05-25T10:48:50.161Z,29.19
2017-05-25T10:49:50.916Z,29.26
2017-05-25T10:50:51.669Z,29.13
2017-05-25T10:51:52.676Z,29.53
2017-05-25T10:52:53.428Z,29.41
2017-05-25T10:53:54.198Z,28.76
2017-05-25T10:54:54.950Z,28.66
2017-05-25T10:55:55.704Z,28.79
2017-05-25T10:56:56.709Z,28.64
2017-05-25T10:57:57.462Z,28.56
2017-05-25T10:58:58.216Z,28.74
2017-05-25T10:59:58.969Z,28.76
2017-05-25T11:00:59.725Z,28.56
2017-05-25T11:02:00.727Z,28.26
2017-05-25T11:03:01.482Z,28.60
2017-05-25T11:04:02.260Z,28.54
2017-05-25T11:05:03.013Z,28.54
2017-05-25T11:06:03.764Z,29.22
2017-05-25T11:07:04.764Z,29.08
2017-05-25T11:08:05.519Z,29.14
2017-05-25T11:09:06.270Z,28.54
2017-05-25T11:10:07.022Z,28.62
2017-05-25T11:11:07.770Z,28.97
2017-05-25T11:12:08.771Z,28.64
2017-05-25T11:13:09.524Z,28.04
2017-05-25T11:14:10.275Z,28.20
2017-05-25T11:15:11.028Z,28.67
2017-05-25T11:16:11.780Z,28.89
2017-05-25T11:17:12.783Z,29.14
2017-05-25T11:18:13.539Z,29.57
2017-05-25T11:19:14.291Z,29.76
2017-05-25T11:20:15.079Z,30.05
2017-05-25T11:21:15.827Z,30.53
2017-05-25T11:22:16.830Z,30.44
2017-05-25T11:23:17.578Z,30.43
2017-05-25T11:24:18.328Z,30.32
2017-05-25T11:25:19.082Z,29.86
2017-05-25T11:26:19.832Z,29.90
2017-05-25T11:27:20.836Z,29.82
2017-05-25T11:28:21.610Z,29.94
2017-05-25T11:29:22.361Z,29.82
2017-05-25T11:30:23.112Z,29.87
2017-05-25T11:31:23.863Z,29.71
2017-05-25T11:32:24.865Z,29.50
2017-05-25T11:33:25.615Z,29.65
2017-05-25T11:34:26.364Z,28.76
2017-05-25T11:35:27.140Z,28.75
2017-05-25T11:36:27.891Z,28.91
2017-05-25T11:37:28.893Z,29.24
2017-05-25T11:38:29.669Z,29.20
2017-05-25T11:39:30.421Z,28.20
2017-05-25T11:40:31.172Z,28.72
2017-05-25T11:41:31.923Z,28.84
2017-05-25T11:42:32.947Z,28.76
2017-05-25T11:43:33.697Z,29.12
2017-05-25T11:44:34.449Z,29.29
2017-05-25T11:45:35.203Z,29.78
2017-05-25T11:46:35.955Z,29.56
2017-05-25T11:47:36.957Z,29.68
2017-05-25T11:48:37.709Z,29.76
2017-05-25T11:49:38.459Z,29.59
2017-05-25T11:50:39.211Z,29.84
2017-05-25T11:51:39.987Z,29.87
2017-05-25T11:52:40.989Z,29.20
2017-05-25T11:53:41.740Z,29.41
2017-05-25T11:54:42.494Z,29.69
2017-05-25T11:55:43.245Z,29.88
2017-05-25T11:56:43.996Z,29.94
2017-05-25T11:57:45.000Z,30.08
2017-05-25T11:58:45.750Z,30.28
2017-05-25T11:59:46.503Z,30.08
2017-05-25T12:00:47.277Z,30.37
2017-05-25T12:01:48.031Z,29.91
2017-05-25T12:02:49.033Z,29.90
2017-05-25T12:03:49.783Z,30.39
2017-05-25T12:04:50.536Z,30.16
2017-05-25T12:05:51.311Z,30.40
2017-05-25T12:06:52.062Z,30.55
2017-05-25T12:07:53.069Z,30.57
2017-05-25T12:08:53.818Z,30.51
2017-05-25T12:09:54.592Z,30.70
2017-05-25T12:10:55.370Z,30.53
2017-05-25T12:11:56.126Z,30.72
2017-05-25T12:12:57.122Z,30.94
2017-05-25T12:13:57.875Z,30.91
2017-05-25T12:14:58.628Z,31.05
2017-05-25T12:15:59.400Z,31.14
2017-05-25T12:17:00.153Z,31.39
2017-05-25T12:18:01.152Z,31.31
2017-05-25T12:19:01.902Z,30.69
2017-05-25T12:20:02.654Z,30.50
2017-05-25T12:21:03.404Z,30.51
2017-05-25T12:22:04.157Z,30.61
2017-05-25T12:23:05.161Z,31.03
2017-05-25T12:24:05.915Z,31.43
2017-05-25T12:25:06.665Z,31.81
2017-05-25T12:26:07.417Z,31.62
2017-05-25T12:27:08.167Z,31.92
2017-05-25T12:28:09.171Z,31.94
2017-05-25T12:29:09.928Z,32.26
2017-05-25T12:30:10.677Z,32.16
2017-05-25T12:31:11.430Z,32.27
2017-05-25T12:32:12.205Z,31.64
2017-05-25T12:33:13.205Z,31.43
2017-05-25T12:34:13.954Z,31.44
2017-05-25T12:35:14.707Z,31.22
2017-05-25T12:36:15.458Z,30.81
2017-05-25T12:37:16.207Z,30.40
2017-05-25T12:38:17.211Z,30.62
2017-05-25T12:39:17.963Z,30.87
2017-05-25T12:40:18.713Z,30.91
2017-05-25T12:41:19.466Z,30.72
2017-05-25T12:42:20.219Z,31.27
2017-05-25T12:43:21.221Z,31.22
2017-05-25T12:44:21.975Z,30.90
2017-05-25T12:45:22.731Z,30.90
2017-05-25T12:46:23.482Z,31.00
2017-05-25T12:47:24.237Z,31.12
2017-05-25T12:48:25.237Z,31.29
2017-05-25T12:49:25.993Z,31.34
2017-05-25T12:50:26.769Z,31.18
2017-05-25T12:51:27.517Z,30.99
2017-05-25T12:52:28.265Z,30.75
2017-05-25T12:53:29.291Z,30.05
2017-05-25T12:54:30.042Z,30.08
2017-05-25T12:55:30.793Z,30.39
2017-05-25T12:56:31.544Z,30.23
2017-05-25T12:57:32.298Z,30.55
2017-05-25T12:58:33.296Z,30.73
2017-05-25T12:59:34.051Z,30.77
2017-05-25T13:00:34.830Z,31.02
2017-05-25T13:01:35.586Z,31.36
2017-05-25T13:02:36.337Z,31.42
2017-05-25T13:03:37.344Z,31.24